APG713 RPLL-RPVK
Flight info
| Callsign | APG713 |
|---|---|
| Flight time | 0h 39m |
| Altitude | 27000 |
| Route | HARBO1 HARBO DCT VERDE W24 TAPER TAPER1R |
| Aircraft | A320/M-SDE3FGHIRWY/LB1 |
Departure
| Time | 2026-04-14 14:41 |
|---|---|
| Airport | Ninoy Aquino International Airport (RPLL) |
Arrival
| Time | 2026-04-14 15:21 |
|---|---|
| Airport | Kalibo International Airport (RPVK) |
| Time | Latitude | Longitude | Altitude | Speed | Heading |
|---|---|---|---|---|---|
| 2026-04-14 14:36 | 14.50791 | 121.01373 | 63 ft | 2 kts | 18° |
| 2026-04-14 14:36 | 14.50781 | 121.01368 | 59 ft | 2 kts | 52° |
| 2026-04-14 14:37 | 14.50775 | 121.01358 | 59 ft | 2 kts | 59° |
| 2026-04-14 14:37 | 14.50770 | 121.01350 | 59 ft | 0 kts | 60° |
| 2026-04-14 14:38 | 14.50779 | 121.01367 | 62 ft | 7 kts | 61° |
| 2026-04-14 14:39 | 14.50803 | 121.01410 | 66 ft | 10 kts | 59° |
| 2026-04-14 14:39 | 14.50853 | 121.01500 | 65 ft | 16 kts | 60° |
| 2026-04-14 14:39 | 14.50910 | 121.01603 | 65 ft | 17 kts | 60° |
| 2026-04-14 14:39 | 14.50969 | 121.01711 | 63 ft | 18 kts | 60° |
| 2026-04-14 14:40 | 14.51019 | 121.01776 | 64 ft | 6 kts | 6° |
| 2026-04-14 14:40 | 14.51054 | 121.01757 | 69 ft | 1 kts | 317° |
| 2026-04-14 14:40 | 14.51054 | 121.01756 | 69 ft | 0 kts | 317° |
| 2026-04-14 14:40 | 14.51215 | 121.01594 | 63 ft | 77 kts | 315° |
| 2026-04-14 14:41 | 14.51791 | 121.00991 | 65 ft | 156 kts | 314° |
| 2026-04-14 14:41 | 14.52590 | 121.00154 | 669 ft | 165 kts | 315° |
| 2026-04-14 14:41 | 14.53433 | 120.99289 | 1417 ft | 173 kts | 316° |
| 2026-04-14 14:41 | 14.54274 | 120.98423 | 2071 ft | 174 kts | 317° |
| 2026-04-14 14:42 | 14.55190 | 120.97482 | 2239 ft | 201 kts | 317° |
| 2026-04-14 14:42 | 14.56245 | 120.96401 | 2485 ft | 226 kts | 317° |
| 2026-04-14 14:42 | 14.57294 | 120.95089 | 2822 ft | 252 kts | 297° |
| 2026-04-14 14:42 | 14.57677 | 120.93264 | 3365 ft | 269 kts | 267° |
| 2026-04-14 14:43 | 14.57150 | 120.91404 | 4141 ft | 275 kts | 242° |
| 2026-04-14 14:43 | 14.56166 | 120.89700 | 4993 ft | 278 kts | 237° |
| 2026-04-14 14:43 | 14.55019 | 120.88083 | 5769 ft | 282 kts | 223° |
| 2026-04-14 14:43 | 14.53365 | 120.86978 | 6511 ft | 286 kts | 199° |
| 2026-04-14 14:44 | 14.51422 | 120.86679 | 7218 ft | 288 kts | 173° |
| 2026-04-14 14:44 | 14.49436 | 120.86978 | 7965 ft | 290 kts | 169° |
| 2026-04-14 14:44 | 14.47438 | 120.87318 | 8716 ft | 292 kts | 169° |
| 2026-04-14 14:44 | 14.45422 | 120.87661 | 9422 ft | 296 kts | 169° |
| 2026-04-14 14:45 | 14.43382 | 120.88003 | 10097 ft | 299 kts | 169° |
| 2026-04-14 14:45 | 14.41274 | 120.88354 | 10349 ft | 318 kts | 169° |
| 2026-04-14 14:45 | 14.39015 | 120.88728 | 10476 ft | 339 kts | 169° |
| 2026-04-14 14:45 | 14.36634 | 120.89119 | 10811 ft | 351 kts | 170° |
| 2026-04-14 14:46 | 14.34200 | 120.89515 | 11340 ft | 356 kts | 170° |
| 2026-04-14 14:46 | 14.31744 | 120.89912 | 11900 ft | 360 kts | 170° |
| 2026-04-14 14:46 | 14.29255 | 120.90316 | 12473 ft | 364 kts | 170° |
| 2026-04-14 14:46 | 14.26741 | 120.90726 | 13041 ft | 367 kts | 170° |
| 2026-04-14 14:47 | 14.24242 | 120.91135 | 13599 ft | 371 kts | 170° |
| 2026-04-14 14:47 | 14.21649 | 120.91560 | 14114 ft | 374 kts | 170° |
| 2026-04-14 14:47 | 14.19099 | 120.91978 | 14609 ft | 377 kts | 170° |
| 2026-04-14 14:47 | 14.16497 | 120.92403 | 15113 ft | 380 kts | 170° |
| 2026-04-14 14:48 | 14.13879 | 120.92832 | 15620 ft | 383 kts | 170° |
| 2026-04-14 14:48 | 14.11236 | 120.93267 | 16123 ft | 386 kts | 170° |
| 2026-04-14 14:48 | 14.08582 | 120.93704 | 16628 ft | 388 kts | 170° |
| 2026-04-14 14:48 | 14.05900 | 120.94142 | 17128 ft | 391 kts | 170° |
| 2026-04-14 14:49 | 14.03201 | 120.94583 | 17632 ft | 394 kts | 170° |
| 2026-04-14 14:49 | 14.00481 | 120.95025 | 18129 ft | 397 kts | 170° |
| 2026-04-14 14:49 | 13.97739 | 120.95471 | 18551 ft | 400 kts | 170° |
| 2026-04-14 14:49 | 13.94976 | 120.95917 | 18990 ft | 403 kts | 170° |
| 2026-04-14 14:50 | 13.92198 | 120.96368 | 19425 ft | 406 kts | 170° |
| 2026-04-14 14:50 | 13.89396 | 120.96825 | 19860 ft | 409 kts | 170° |
| 2026-04-14 14:50 | 13.86578 | 120.97286 | 20310 ft | 411 kts | 170° |
| 2026-04-14 14:50 | 13.83743 | 120.97752 | 20752 ft | 414 kts | 170° |
| 2026-04-14 14:51 | 13.80886 | 120.98217 | 21190 ft | 416 kts | 170° |
| 2026-04-14 14:51 | 13.78017 | 120.98682 | 21629 ft | 419 kts | 170° |
| 2026-04-14 14:51 | 13.75166 | 120.99144 | 22050 ft | 422 kts | 171° |
| 2026-04-14 14:51 | 13.72258 | 120.99614 | 22464 ft | 424 kts | 171° |
| 2026-04-14 14:52 | 13.69331 | 121.00089 | 22873 ft | 427 kts | 171° |
| 2026-04-14 14:52 | 13.66391 | 121.00568 | 23276 ft | 430 kts | 171° |
| 2026-04-14 14:52 | 13.63420 | 121.01052 | 23634 ft | 432 kts | 171° |
| 2026-04-14 14:52 | 13.60449 | 121.01534 | 23969 ft | 434 kts | 171° |
| 2026-04-14 14:53 | 13.57469 | 121.02016 | 24308 ft | 435 kts | 171° |
| 2026-04-14 14:53 | 13.54472 | 121.02503 | 24663 ft | 437 kts | 170° |
| 2026-04-14 14:53 | 13.51505 | 121.03227 | 24993 ft | 438 kts | 161° |
| 2026-04-14 14:53 | 13.48700 | 121.04456 | 25300 ft | 439 kts | 151° |
| 2026-04-14 14:54 | 13.46143 | 121.06121 | 25618 ft | 440 kts | 145° |
| 2026-04-14 14:54 | 13.43625 | 121.07906 | 25928 ft | 441 kts | 145° |
| 2026-04-14 14:54 | 13.41094 | 121.09697 | 26236 ft | 443 kts | 145° |
| 2026-04-14 14:54 | 13.38551 | 121.11490 | 26538 ft | 444 kts | 145° |
| 2026-04-14 14:55 | 13.35997 | 121.13285 | 26832 ft | 446 kts | 145° |
| 2026-04-14 14:55 | 13.33440 | 121.15078 | 26925 ft | 442 kts | 146° |
| 2026-04-14 14:55 | 13.30923 | 121.16844 | 26950 ft | 435 kts | 145° |
| 2026-04-14 14:55 | 13.28434 | 121.18592 | 26947 ft | 432 kts | 145° |
| 2026-04-14 14:56 | 13.23480 | 121.22070 | 26945 ft | 431 kts | 146° |
| 2026-04-14 14:56 | 13.21035 | 121.23784 | 26948 ft | 431 kts | 146° |
| 2026-04-14 14:56 | 13.18559 | 121.25520 | 26947 ft | 431 kts | 146° |
| 2026-04-14 14:57 | 13.16077 | 121.27258 | 26949 ft | 430 kts | 146° |
| 2026-04-14 14:57 | 13.13615 | 121.28981 | 26958 ft | 430 kts | 146° |
| 2026-04-14 14:57 | 13.11136 | 121.30714 | 26949 ft | 430 kts | 146° |
| 2026-04-14 14:57 | 13.09019 | 121.32193 | 26951 ft | 430 kts | 146° |
| 2026-04-14 14:58 | 13.06547 | 121.33920 | 26949 ft | 430 kts | 146° |
| 2026-04-14 14:58 | 13.04077 | 121.35646 | 26947 ft | 430 kts | 146° |
| 2026-04-14 14:58 | 13.01603 | 121.37374 | 26919 ft | 429 kts | 146° |
| 2026-04-14 14:58 | 12.99154 | 121.39085 | 26676 ft | 424 kts | 146° |
| 2026-04-14 14:59 | 12.96728 | 121.40784 | 26435 ft | 421 kts | 146° |
| 2026-04-14 14:59 | 12.94340 | 121.42459 | 26200 ft | 419 kts | 146° |
| 2026-04-14 14:59 | 12.91934 | 121.44145 | 25926 ft | 415 kts | 146° |
| 2026-04-14 14:59 | 12.89552 | 121.45812 | 25428 ft | 412 kts | 146° |
| 2026-04-14 15:00 | 12.87234 | 121.47432 | 24920 ft | 411 kts | 145° |
| 2026-04-14 15:00 | 12.84853 | 121.49096 | 24427 ft | 409 kts | 145° |
| 2026-04-14 15:00 | 12.82530 | 121.50721 | 23929 ft | 407 kts | 145° |
| 2026-04-14 15:00 | 12.80191 | 121.52356 | 23442 ft | 406 kts | 145° |
| 2026-04-14 15:01 | 12.77862 | 121.53983 | 22918 ft | 403 kts | 145° |
| 2026-04-14 15:01 | 12.75545 | 121.55601 | 22456 ft | 400 kts | 145° |
| 2026-04-14 15:01 | 12.74031 | 121.56658 | 22146 ft | 397 kts | 144° |
| 2026-04-14 15:01 | 12.71019 | 121.58760 | 21528 ft | 394 kts | 144° |
| 2026-04-14 15:02 | 12.68766 | 121.60331 | 21067 ft | 391 kts | 144° |
| 2026-04-14 15:02 | 12.66513 | 121.61901 | 20589 ft | 389 kts | 144° |
| 2026-04-14 15:02 | 12.64281 | 121.63454 | 20107 ft | 388 kts | 144° |
| 2026-04-14 15:02 | 12.62052 | 121.65005 | 19623 ft | 387 kts | 144° |
| 2026-04-14 15:03 | 12.59833 | 121.66551 | 19131 ft | 386 kts | 144° |
| 2026-04-14 15:03 | 12.57611 | 121.68101 | 18635 ft | 386 kts | 144° |
| 2026-04-14 15:03 | 12.55394 | 121.69647 | 18131 ft | 386 kts | 144° |
| 2026-04-14 15:03 | 12.53168 | 121.71195 | 17583 ft | 385 kts | 144° |
| 2026-04-14 15:04 | 12.51707 | 121.72210 | 17253 ft | 383 kts | 144° |
| 2026-04-14 15:04 | 12.49508 | 121.73739 | 16783 ft | 381 kts | 144° |
| 2026-04-14 15:04 | 12.47318 | 121.75264 | 16305 ft | 379 kts | 144° |
| 2026-04-14 15:04 | 12.45143 | 121.76780 | 15827 ft | 377 kts | 144° |
| 2026-04-14 15:05 | 12.42981 | 121.78287 | 15358 ft | 376 kts | 144° |
| 2026-04-14 15:05 | 12.40823 | 121.79793 | 14881 ft | 374 kts | 144° |
| 2026-04-14 15:05 | 12.38674 | 121.81290 | 14406 ft | 373 kts | 144° |
| 2026-04-14 15:05 | 12.36532 | 121.82783 | 13928 ft | 372 kts | 143° |
| 2026-04-14 15:06 | 12.34454 | 121.84334 | 13539 ft | 367 kts | 141° |
| 2026-04-14 15:06 | 12.32456 | 121.85934 | 13169 ft | 362 kts | 140° |
| 2026-04-14 15:06 | 12.30518 | 121.87541 | 12817 ft | 356 kts | 139° |
| 2026-04-14 15:06 | 12.28646 | 121.89108 | 12468 ft | 350 kts | 139° |
| 2026-04-14 15:07 | 12.26772 | 121.90677 | 12126 ft | 345 kts | 139° |
| 2026-04-14 15:07 | 12.24924 | 121.92208 | 11822 ft | 341 kts | 139° |
| 2026-04-14 15:07 | 12.23072 | 121.93723 | 11533 ft | 340 kts | 140° |
| 2026-04-14 15:07 | 12.21824 | 121.94739 | 11313 ft | 338 kts | 140° |
| 2026-04-14 15:08 | 12.21404 | 121.95080 | 11227 ft | 338 kts | 140° |
| 2026-04-14 15:08 | 12.19519 | 121.96602 | 10894 ft | 336 kts | 140° |
| 2026-04-14 15:08 | 12.17690 | 121.98078 | 10561 ft | 334 kts | 140° |
| 2026-04-14 15:08 | 12.15873 | 121.99543 | 10320 ft | 327 kts | 140° |
| 2026-04-14 15:09 | 12.14121 | 122.00958 | 10209 ft | 315 kts | 140° |
| 2026-04-14 15:09 | 12.12434 | 122.02322 | 10066 ft | 305 kts | 140° |
| 2026-04-14 15:09 | 12.10782 | 122.03656 | 9863 ft | 299 kts | 139° |
| 2026-04-14 15:09 | 12.09172 | 122.04990 | 9647 ft | 297 kts | 134° |
| 2026-04-14 15:10 | 12.07869 | 122.06598 | 9400 ft | 292 kts | 119° |
| 2026-04-14 15:10 | 12.06927 | 122.08430 | 9151 ft | 290 kts | 114° |
| 2026-04-14 15:10 | 12.06029 | 122.10247 | 8901 ft | 290 kts | 115° |
| 2026-04-14 15:10 | 12.05121 | 122.12075 | 8656 ft | 288 kts | 115° |
| 2026-04-14 15:11 | 12.04215 | 122.13894 | 8403 ft | 287 kts | 115° |
| 2026-04-14 15:11 | 12.03310 | 122.15708 | 8161 ft | 286 kts | 115° |
| 2026-04-14 15:11 | 12.02411 | 122.17509 | 7912 ft | 284 kts | 115° |
| 2026-04-14 15:11 | 12.01513 | 122.19305 | 7680 ft | 283 kts | 115° |
| 2026-04-14 15:12 | 12.00617 | 122.21089 | 7437 ft | 282 kts | 115° |
| 2026-04-14 15:12 | 11.99726 | 122.22867 | 7192 ft | 281 kts | 115° |
| 2026-04-14 15:12 | 11.98843 | 122.24637 | 6948 ft | 279 kts | 115° |
| 2026-04-14 15:12 | 11.97965 | 122.26398 | 6715 ft | 278 kts | 115° |
| 2026-04-14 15:13 | 11.97089 | 122.28153 | 6476 ft | 276 kts | 115° |
| 2026-04-14 15:13 | 11.96218 | 122.29899 | 6234 ft | 275 kts | 115° |
| 2026-04-14 15:13 | 11.95354 | 122.31630 | 5991 ft | 273 kts | 115° |
| 2026-04-14 15:13 | 11.94491 | 122.33358 | 5753 ft | 273 kts | 115° |
| 2026-04-14 15:14 | 11.93640 | 122.35056 | 5509 ft | 272 kts | 115° |
| 2026-04-14 15:14 | 11.92782 | 122.36769 | 5284 ft | 271 kts | 115° |
| 2026-04-14 15:14 | 11.91928 | 122.38478 | 5054 ft | 270 kts | 114° |
| 2026-04-14 15:14 | 11.91076 | 122.40185 | 4823 ft | 269 kts | 114° |
| 2026-04-14 15:15 | 11.90220 | 122.41893 | 4587 ft | 270 kts | 115° |
| 2026-04-14 15:15 | 11.89160 | 122.43472 | 4350 ft | 272 kts | 130° |
| 2026-04-14 15:15 | 11.87765 | 122.44764 | 4111 ft | 268 kts | 137° |
| 2026-04-14 15:15 | 11.86375 | 122.45982 | 3872 ft | 259 kts | 137° |
| 2026-04-14 15:16 | 11.85032 | 122.47165 | 3645 ft | 251 kts | 137° |
| 2026-04-14 15:16 | 11.83737 | 122.48310 | 3428 ft | 243 kts | 136° |
| 2026-04-14 15:16 | 11.82475 | 122.49427 | 3217 ft | 237 kts | 136° |
| 2026-04-14 15:16 | 11.81202 | 122.50454 | 2998 ft | 233 kts | 150° |
| 2026-04-14 15:17 | 11.79628 | 122.50690 | 2788 ft | 233 kts | 192° |
| 2026-04-14 15:17 | 11.78257 | 122.49907 | 2591 ft | 230 kts | 220° |
| 2026-04-14 15:17 | 11.77166 | 122.48747 | 2373 ft | 221 kts | 229° |
| 2026-04-14 15:17 | 11.76210 | 122.47544 | 2181 ft | 216 kts | 231° |
| 2026-04-14 15:18 | 11.75311 | 122.46386 | 2020 ft | 197 kts | 230° |
| 2026-04-14 15:18 | 11.74495 | 122.45352 | 1802 ft | 179 kts | 230° |
| 2026-04-14 15:18 | 11.73720 | 122.44393 | 1580 ft | 170 kts | 229° |
| 2026-04-14 15:18 | 11.72982 | 122.43497 | 1344 ft | 160 kts | 228° |
| 2026-04-14 15:19 | 11.72270 | 122.42643 | 1127 ft | 157 kts | 229° |
| 2026-04-14 15:19 | 11.71570 | 122.41812 | 931 ft | 152 kts | 228° |
| 2026-04-14 15:19 | 11.70879 | 122.40992 | 731 ft | 152 kts | 226° |
| 2026-04-14 15:19 | 11.70206 | 122.40179 | 544 ft | 150 kts | 228° |
| 2026-04-14 15:20 | 11.69538 | 122.39374 | 292 ft | 147 kts | 227° |
| 2026-04-14 15:20 | 11.68872 | 122.38604 | 104 ft | 144 kts | 227° |
| 2026-04-14 15:20 | 11.68220 | 122.37859 | 23 ft | 132 kts | 227° |
| 2026-04-14 15:20 | 11.67715 | 122.37283 | 20 ft | 84 kts | 227° |
| 2026-04-14 15:21 | 11.67427 | 122.36944 | 18 ft | 48 kts | 229° |
| 2026-04-14 15:21 | 11.67287 | 122.36785 | 18 ft | 22 kts | 225° |
| 2026-04-14 15:21 | 11.67241 | 122.36726 | 20 ft | 1 kts | 316° |
| 2026-04-14 15:21 | 11.67257 | 122.36743 | 17 ft | 11 kts | 44° |
| 2026-04-14 15:22 | 11.67337 | 122.36840 | 21 ft | 20 kts | 51° |
| 2026-04-14 15:22 | 11.67436 | 122.36952 | 19 ft | 22 kts | 49° |
| 2026-04-14 15:22 | 11.67543 | 122.37075 | 19 ft | 24 kts | 48° |
| 2026-04-14 15:22 | 11.67655 | 122.37204 | 19 ft | 25 kts | 49° |
| 2026-04-14 15:23 | 11.67770 | 122.37342 | 21 ft | 26 kts | 48° |
| 2026-04-14 15:23 | 11.67892 | 122.37483 | 21 ft | 27 kts | 49° |
| 2026-04-14 15:23 | 11.68016 | 122.37632 | 22 ft | 28 kts | 50° |
| 2026-04-14 15:23 | 11.68149 | 122.37787 | 20 ft | 30 kts | 47° |
| 2026-04-14 15:24 | 11.68294 | 122.37946 | 20 ft | 31 kts | 47° |
| 2026-04-14 15:24 | 11.68417 | 122.38091 | 20 ft | 20 kts | 46° |
| 2026-04-14 15:24 | 11.68490 | 122.38118 | 20 ft | 9 kts | 347° |
| 2026-04-14 15:24 | 11.68542 | 122.38107 | 21 ft | 0 kts | 350° |